Time;durP1;ratioP1;P1;durP2;ratioP2;P2;SDS_P1;SDS_P2;PMS_P1;PMS_P2;Temp;Humidity;BMP_temperature;BMP_pressure;BME280_temperature;BME280_humidity;BME280_pressure;Samples;Min_cycle;Max_cycle;Signal;HPM_P1;HPM_P2
2023/09/04 00:01:32;;;;;;;5.30;4.80;;;;;;;16.48;78.11;102979.06;7398580;19;19929;-70
2023/09/04 00:04:01;;;;;;;6.70;5.38;;;;;;;16.42;77.76;102977.84;7396917;19;19949;-71
2023/09/04 00:06:33;;;;;;;5.53;3.72;;;;;;;16.39;77.81;102980.91;7396555;19;19957;-71
2023/09/04 00:09:04;;;;;;;4.70;3.75;;;;;;;16.38;77.87;102983.78;7393578;19;19927;-71
2023/09/04 00:11:32;;;;;;;7.05;4.10;;;;;;;16.38;77.27;102994.66;7398306;19;19924;-70
2023/09/04 00:14:01;;;;;;;6.00;3.88;;;;;;;16.33;77.62;102998.72;7395164;19;20284;-71
2023/09/04 00:16:30;;;;;;;7.43;5.07;;;;;;;16.26;77.60;102986.81;7396070;19;19955;-70
2023/09/04 00:19:18;;;;;;;;;;;;;;;15.97;79.34;102986.28;7396516;19;19922;-71
2023/09/04 00:21:50;;;;;;;6.18;4.30;;;;;;;16.16;77.70;102983.34;7397977;19;20357;-70
2023/09/04 00:24:22;;;;;;;5.68;4.10;;;;;;;16.14;78.20;102990.81;7396258;19;20257;-70
2023/09/04 00:26:50;;;;;;;6.80;3.85;;;;;;;16.14;78.16;102981.78;7396908;19;19927;-70
2023/09/04 00:29:19;;;;;;;4.22;3.33;;;;;;;16.12;77.92;102984.69;7396215;19;19933;-71
2023/09/04 00:31:48;;;;;;;7.38;3.80;;;;;;;16.08;78.25;102980.59;7394209;19;19950;-70
2023/09/04 00:34:17;;;;;;;5.88;4.00;;;;;;;16.06;78.19;102976.31;7396174;19;19955;-71
2023/09/04 00:36:46;;;;;;;5.78;4.25;;;;;;;16.03;78.56;102972.06;7394136;19;20371;-70
2023/09/04 00:39:18;;;;;;;7.35;4.15;;;;;;;16.02;78.65;102978.50;7397228;19;19931;-71
2023/09/04 00:41:48;;;;;;;5.40;4.00;;;;;;;16.03;78.39;102987.53;7395169;19;19933;-70
2023/09/04 00:44:16;;;;;;;5.80;4.68;;;;;;;16.01;78.21;102984.94;7394342;19;19922;-70
2023/09/04 00:47:09;;;;;;;7.65;4.97;;;;;;;16.00;78.27;102987.84;7393677;19;19959;-70
2023/09/04 00:49:39;;;;;;;6.50;4.45;;;;;;;16.00;78.17;102990.56;7395971;19;19922;-70
2023/09/04 00:52:28;;;;;;;6.38;5.13;;;;;;;15.98;78.44;102998.03;7389032;19;19926;-71
2023/09/04 00:55:03;;;;;;;8.23;4.93;;;;;;;15.94;78.47;103002.06;7391729;19;19918;-70
2023/09/04 00:57:32;;;;;;;5.38;4.78;;;;;;;15.92;78.53;102993.25;7391478;19;20259;-70
2023/09/04 01:00:23;;;;;;;5.85;4.78;;;;;;;15.85;78.37;102998.44;7387265;19;19922;-70
2023/09/04 01:02:52;;;;;;;6.70;4.90;;;;;;;15.83;78.64;102995.06;7396026;19;19923;-71
2023/09/04 01:05:21;;;;;;;6.57;5.13;;;;;;;15.80;78.80;102990.78;7395846;19;19938;-70
2023/09/04 01:07:50;;;;;;;7.38;5.25;;;;;;;15.79;78.85;102983.63;7391389;19;19922;-70
2023/09/04 01:10:21;;;;;;;5.95;4.93;;;;;;;15.76;79.09;102983.94;7395546;19;19927;-70
2023/09/04 01:12:57;;;;;;;7.00;6.00;;;;;;;15.72;79.32;102979.00;7393164;19;19929;-71
2023/09/04 01:15:47;;;;;;;6.75;5.78;;;;;;;15.72;79.75;102977.13;7391239;19;19930;-71
2023/09/04 01:18:16;;;;;;;10.15;5.93;;;;;;;15.71;79.33;102980.84;7393870;19;19926;-70
2023/09/04 01:21:02;;;;;;;8.80;5.85;;;;;;;15.68;79.70;102980.31;7394995;19;19938;-70
2023/09/04 01:23:31;;;;;;;10.52;5.72;;;;;;;15.65;79.67;102981.50;7401038;19;19918;-70
2023/09/04 01:26:09;;;;;;;6.55;5.43;;;;;;;15.64;79.86;102977.09;7402908;19;19934;-70
2023/09/04 01:29:08;;;;;;;6.53;4.65;;;;;;;15.60;80.18;102975.69;7401151;19;20248;-71
2023/09/04 01:31:46;;;;;;;7.65;4.68;;;;;;;15.61;79.74;102968.41;7399871;19;19934;-70
2023/09/04 01:34:16;;;;;;;;;;;;;;;15.35;81.93;102976.50;7405082;19;19926;-70
2023/09/04 01:36:51;;;;;;;5.78;4.40;;;;;;;15.54;80.07;102965.44;7401478;19;19957;-70
2023/09/04 01:39:21;;;;;;;4.80;4.10;;;;;;;15.55;79.67;102961.72;7400595;19;19922;-70
2023/09/04 01:41:50;;;;;;;6.20;5.00;;;;;;;15.55;80.10;102963.59;7401862;19;19927;-70
2023/09/04 01:44:19;;;;;;;6.15;4.72;;;;;;;15.55;79.91;102966.31;7398580;19;19934;-70
2023/09/04 01:46:48;;;;;;;7.93;6.03;;;;;;;15.54;79.70;102961.88;7401403;19;19911;-70
2023/09/04 01:49:16;;;;;;;8.55;6.15;;;;;;;15.52;79.80;102970.22;7400094;19;19997;-69
2023/09/04 01:51:49;;;;;;;10.50;6.65;;;;;;;15.51;80.00;102968.50;7399176;19;19933;-69
2023/09/04 01:54:17;;;;;;;9.02;6.10;;;;;;;15.49;80.33;102958.78;7398204;19;19915;-70
2023/09/04 01:56:46;;;;;;;8.20;6.72;;;;;;;15.43;79.77;102958.41;7400741;19;19949;-69
2023/09/04 01:59:15;;;;;;;10.00;6.43;;;;;;;15.41;80.17;102954.97;7399194;19;19942;-69
2023/09/04 02:01:43;;;;;;;9.88;6.03;;;;;;;15.39;80.24;102957.00;7398054;19;19927;-69
2023/09/04 02:04:34;;;;;;;10.27;7.38;;;;;;;15.36;80.42;102954.59;7399902;19;19944;-69
2023/09/04 02:07:06;;;;;;;9.50;7.82;;;;;;;15.36;80.28;102960.00;7397792;19;19986;-69
2023/09/04 02:09:35;;;;;;;7.90;6.20;;;;;;;15.34;80.40;102953.03;7396832;19;19922;-70
2023/09/04 02:12:23;;;;;;;10.93;7.63;;;;;;;15.29;80.76;102952.66;7398246;19;19918;-69
2023/09/04 02:14:54;;;;;;;10.15;7.32;;;;;;;15.31;80.77;102950.66;7399485;19;19918;-70
2023/09/04 02:17:22;;;;;;;10.98;6.53;;;;;;;15.28;80.42;102949.09;7397820;19;19959;-69
2023/09/04 02:19:51;;;;;;;9.43;7.03;;;;;;;15.26;80.52;102944.84;7397177;19;19982;-69
2023/09/04 02:22:24;;;;;;;9.05;6.80;;;;;;;15.25;80.58;102946.69;7398218;19;19939;-69
2023/09/04 02:25:14;;;;;;;9.00;6.95;;;;;;;15.23;80.30;102947.88;7398377;19;19933;-69
2023/09/04 02:27:42;;;;;;;10.77;6.95;;;;;;;15.18;81.02;102940.19;7399052;19;19922;-69
2023/09/04 02:30:12;;;;;;;11.27;7.47;;;;;;;15.17;81.00;102945.78;7399204;19;19919;-69
2023/09/04 02:32:40;;;;;;;9.35;7.13;;;;;;;15.14;80.99;102940.66;7395017;19;19934;-70
2023/09/04 02:35:10;;;;;;;7.78;6.35;;;;;;;15.13;80.67;102939.81;7398040;19;19932;-70
2023/09/04 02:37:42;;;;;;;10.27;7.53;;;;;;;15.10;80.81;102947.41;7399201;19;20299;-69
2023/09/04 02:40:12;;;;;;;10.18;7.95;;;;;;;15.08;80.76;102944.84;7394633;19;19922;-70
2023/09/04 02:42:41;;;;;;;10.43;7.28;;;;;;;15.03;80.70;102947.19;7397633;19;19925;-69
2023/09/04 02:45:12;;;;;;;10.25;7.18;;;;;;;15.01;80.95;102948.34;7399394;19;19958;-69
2023/09/04 02:47:42;;;;;;;9.05;7.00;;;;;;;14.98;81.08;102938.63;7398093;19;19930;-69
2023/09/04 02:50:11;;;;;;;8.98;6.80;;;;;;;14.95;80.94;102944.38;7395462;19;19911;-69
2023/09/04 02:52:43;;;;;;;10.90;6.63;;;;;;;14.93;81.37;102947.25;7396830;19;19954;-69
2023/09/04 02:55:12;;;;;;;;;;;;;;;14.68;82.58;102939.88;7400355;19;20428;-70
2023/09/04 02:57:40;;;;;;;;;;;;;;;14.61;82.78;102946.94;7399219;19;19950;-69
2023/09/04 03:00:29;;;;;;;9.02;5.50;;;;;;;14.77;81.37;102941.66;7392516;19;19926;-69
2023/09/04 03:02:58;;;;;;;6.32;4.95;;;;;;;14.79;80.89;102936.94;7398976;19;20369;-69
2023/09/04 03:05:29;;;;;;;6.88;5.10;;;;;;;14.78;81.14;102937.09;7397264;19;19933;-69
2023/09/04 03:08:20;;;;;;;5.80;4.72;;;;;;;14.72;81.73;102934.97;7395830;19;20326;-69
2023/09/04 03:10:49;;;;;;;6.15;4.60;;;;;;;14.70;81.33;102931.59;7398022;19;19930;-70
2023/09/04 03:13:18;;;;;;;7.43;4.95;;;;;;;14.67;81.56;102934.63;7398054;19;19936;-69
2023/09/04 03:15:47;;;;;;;5.72;4.00;;;;;;;14.65;81.31;102939.34;7396413;19;19943;-69
2023/09/04 03:18:16;;;;;;;5.45;4.45;;;;;;;14.63;81.33;102931.34;7399469;19;19944;-69
2023/09/04 03:20:44;;;;;;;6.28;5.03;;;;;;;14.62;81.79;102942.34;7396852;19;19923;-69
2023/09/04 03:23:13;;;;;;;5.75;4.38;;;;;;;14.60;81.73;102937.06;7400584;19;20346;-69
2023/09/04 03:26:04;;;;;;;6.05;4.63;;;;;;;14.57;81.76;102928.41;7398326;19;20650;-69
2023/09/04 03:28:34;;;;;;;6.03;4.55;;;;;;;14.55;81.88;102931.25;7397253;19;19982;-69
2023/09/04 03:31:03;;;;;;;5.88;4.60;;;;;;;14.56;81.61;102932.97;7399870;19;19925;-69
2023/09/04 03:33:33;;;;;;;7.13;5.25;;;;;;;14.55;81.89;102931.25;7399082;19;19918;-69
2023/09/04 03:36:04;;;;;;;7.65;5.35;;;;;;;14.53;81.71;102928.72;7398810;19;19941;-69
2023/09/04 03:38:53;;;;;;;5.28;4.75;;;;;;;14.50;81.55;102938.97;7395974;19;19948;-70
2023/09/04 03:41:26;;;;;;;6.93;5.43;;;;;;;14.49;81.45;102938.16;7398975;19;19930;-70
2023/09/04 03:43:55;;;;;;;10.55;6.20;;;;;;;14.48;81.71;102941.88;7398710;19;20454;-70
2023/09/04 03:46:26;;;;;;;8.82;5.93;;;;;;;14.48;81.61;102936.44;7398704;19;19933;-70
2023/09/04 03:48:54;;;;;;;6.90;6.00;;;;;;;14.46;81.57;102937.59;7397805;19;19919;-70
2023/09/04 03:51:24;;;;;;;9.65;6.75;;;;;;;14.44;81.79;102937.75;7399314;19;20351;-70
2023/09/04 03:53:53;;;;;;;8.48;6.95;;;;;;;14.46;82.00;102941.16;7399672;19;20356;-70
2023/09/04 03:56:22;;;;;;;10.23;6.68;;;;;;;14.45;82.22;102944.88;7392303;19;20605;-71
2023/09/04 03:58:54;;;;;;;11.10;6.47;;;;;;;14.44;82.07;102939.63;7389485;19;19935;-70
2023/09/04 04:01:22;;;;;;;11.07;7.03;;;;;;;14.42;81.95;102947.03;7389158;19;19922;-70
2023/09/04 04:04:12;;;;;;;10.15;6.97;;;;;;;14.40;81.89;102947.19;7396713;19;19974;-70
2023/09/04 04:07:01;;;;;;;10.80;6.68;;;;;;;14.37;81.85;102941.19;7393088;19;19929;-70
2023/09/04 04:09:50;;;;;;;8.43;6.32;;;;;;;14.36;82.01;102936.81;7395128;19;19952;-70
2023/09/04 04:12:20;;;;;;;7.47;6.63;;;;;;;14.33;81.59;102937.06;7396415;19;21958;-70
2023/09/04 04:15:13;;;;;;;8.80;5.85;;;;;;;14.26;82.34;102934.13;7398080;19;19922;-70
2023/09/04 04:17:42;;;;;;;8.77;6.00;;;;;;;14.24;82.43;102944.25;7392583;19;19919;-71
2023/09/04 04:20:12;;;;;;;9.57;6.68;;;;;;;14.21;82.28;102933.72;7396835;19;19923;-71
2023/09/04 04:22:43;;;;;;;10.25;6.88;;;;;;;14.19;82.24;102941.16;7394643;19;19944;-71
2023/09/04 04:25:12;;;;;;;9.80;7.13;;;;;;;14.16;82.58;102944.13;7395837;19;19987;-71
2023/09/04 04:27:42;;;;;;;8.93;6.60;;;;;;;14.14;82.30;102945.31;7390062;19;19941;-71
2023/09/04 04:30:13;;;;;;;8.88;7.20;;;;;;;14.13;82.52;102943.59;7395296;19;19930;-70
2023/09/04 04:33:02;;;;;;;9.43;6.85;;;;;;;14.11;82.65;102942.91;7390973;19;19929;-70
2023/09/04 04:35:31;;;;;;;8.13;6.68;;;;;;;14.13;82.18;102944.44;7390428;19;20323;-70
2023/09/04 04:38:01;;;;;;;9.38;6.68;;;;;;;14.13;82.25;102947.16;7398214;19;19918;-70
2023/09/04 04:40:29;;;;;;;10.45;6.68;;;;;;;14.07;81.75;102950.44;7396876;19;20454;-70
2023/09/04 04:42:59;;;;;;;8.50;6.10;;;;;;;14.02;82.07;102945.47;7396383;19;19923;-70
2023/09/04 04:45:31;;;;;;;10.32;7.15;;;;;;;14.00;82.25;102946.66;7396249;19;19929;-70
2023/09/04 04:48:01;;;;;;;8.57;6.80;;;;;;;14.00;82.18;102952.06;7397400;19;19915;-70
2023/09/04 04:50:30;;;;;;;8.35;6.88;;;;;;;13.94;82.34;102953.50;7397402;19;19918;-71
2023/09/04 04:52:59;;;;;;;10.10;6.60;;;;;;;13.91;81.92;102942.97;7394264;19;20372;-69
2023/09/04 04:55:28;;;;;;;7.90;5.65;;;;;;;13.89;82.28;102947.66;7384526;19;19926;-68
2023/09/04 04:58:17;;;;;;;7.45;5.72;;;;;;;13.86;81.79;102945.25;7391340;19;19918;-69
2023/09/04 05:00:48;;;;;;;8.60;6.13;;;;;;;13.83;82.22;102958.25;7402830;19;19919;-70
2023/09/04 05:03:17;;;;;;;6.03;4.80;;;;;;;13.83;82.24;102950.13;7396325;19;19921;-69
2023/09/04 05:06:09;;;;;;;7.25;5.72;;;;;;;13.82;82.19;102949.28;7400031;19;19993;-68
2023/09/04 05:08:57;;;;;;;7.43;5.70;;;;;;;13.81;81.98;102942.13;7400182;19;19927;-70
2023/09/04 05:11:26;;;;;;;5.50;4.38;;;;;;;13.82;82.02;102940.28;7401003;19;20375;-69
2023/09/04 05:13:55;;;;;;;6.57;4.90;;;;;;;13.80;82.03;102947.72;7400517;19;20382;-69
2023/09/04 05:16:46;;;;;;;9.43;4.60;;;;;;;13.79;82.37;102937.88;7397511;19;19910;-69
2023/09/04 05:19:15;;;;;;;7.95;4.85;;;;;;;13.81;82.30;102927.72;7400108;19;19922;-69
2023/09/04 05:21:43;;;;;;;6.35;4.63;;;;;;;13.83;81.85;102928.47;7397764;19;20344;-69
2023/09/04 05:24:12;;;;;;;7.32;4.07;;;;;;;13.79;81.82;102935.19;7402420;19;20268;-69
2023/09/04 05:26:40;;;;;;;4.70;3.80;;;;;;;13.79;82.03;102941.44;7399182;19;19919;-69
2023/09/04 05:29:09;;;;;;;5.97;3.78;;;;;;;13.81;82.39;102938.56;7401829;19;19926;-70
2023/09/04 05:31:38;;;;;;;5.15;3.47;;;;;;;13.84;82.43;102938.28;7397602;19;19930;-69
2023/09/04 05:34:09;;;;;;;5.03;3.72;;;;;;;13.89;82.38;102936.00;7393820;19;19936;-69
2023/09/04 05:36:39;;;;;;;3.47;3.10;;;;;;;13.89;82.24;102941.41;7392770;19;19930;-68
2023/09/04 05:39:08;;;;;;;4.10;2.88;;;;;;;13.91;82.42;102947.53;7398153;19;19923;-69
2023/09/04 05:41:37;;;;;;;4.55;2.78;;;;;;;13.92;82.33;102943.81;7400019;19;19935;-69
2023/09/04 05:44:07;;;;;;;3.97;2.63;;;;;;;13.92;82.89;102939.25;7398772;19;19923;-69
2023/09/04 05:46:37;;;;;;;5.25;2.63;;;;;;;13.93;82.88;102946.41;7397890;19;19915;-69
2023/09/04 05:49:29;;;;;;;3.92;2.95;;;;;;;13.98;82.93;102943.22;7399097;19;19958;-69
2023/09/04 05:51:57;;;;;;;3.50;2.70;;;;;;;14.00;82.90;102943.94;7398631;19;20383;-69
2023/09/04 05:54:26;;;;;;;8.25;3.08;;;;;;;14.05;82.59;102941.63;7389689;19;19945;-69
2023/09/04 05:57:15;;;;;;;4.90;3.97;;;;;;;14.08;83.29;102944.03;7392250;19;19930;-69
2023/09/04 06:00:06;;;;;;;5.03;4.03;;;;;;;14.11;83.26;102934.78;7393464;19;20740;-68
2023/09/04 06:02:35;;;;;;;5.15;4.25;;;;;;;14.16;83.24;102930.59;7393703;19;20002;-69
2023/09/04 06:05:26;;;;;;;6.65;4.20;;;;;;;14.22;83.26;102946.25;7395901;19;19993;-69
2023/09/04 06:07:56;;;;;;;6.80;4.65;;;;;;;14.26;83.33;102930.53;7395831;19;19930;-68
2023/09/04 06:10:25;;;;;;;9.20;5.28;;;;;;;14.30;83.25;102938.22;7401169;19;19945;-69
2023/09/04 06:12:55;;;;;;;9.65;5.88;;;;;;;14.36;83.58;102934.09;7401262;19;19926;-68
2023/09/04 06:15:23;;;;;;;8.57;5.93;;;;;;;14.43;83.62;102938.75;7400160;19;19932;-69
2023/09/04 06:17:52;;;;;;;6.65;5.07;;;;;;;14.48;83.40;102939.16;7398293;19;19945;-69
2023/09/04 06:20:20;;;;;;;6.32;4.65;;;;;;;14.54;83.30;102937.66;7400777;19;19933;-69
2023/09/04 06:22:52;;;;;;;6.63;5.18;;;;;;;14.59;83.57;102940.78;7400437;19;19945;-69
2023/09/04 06:25:42;;;;;;;7.43;5.63;;;;;;;14.63;83.46;102936.75;7382351;19;19918;-69
2023/09/04 06:28:31;;;;;;;6.47;5.28;;;;;;;14.69;83.26;102938.00;7393755;19;20267;-69
2023/09/04 06:31:00;;;;;;;6.07;4.38;;;;;;;14.74;83.62;102938.41;7392843;19;19930;-70
2023/09/04 06:33:33;;;;;;;7.20;5.30;;;;;;;14.80;83.68;102941.34;7398157;19;20394;-69
2023/09/04 06:36:03;;;;;;;9.10;5.88;;;;;;;14.87;83.57;102947.03;7396685;19;19953;-69
2023/09/04 06:38:34;;;;;;;7.22;5.18;;;;;;;14.94;83.95;102946.25;7398894;19;19927;-69
2023/09/04 06:41:03;;;;;;;8.15;5.00;;;;;;;15.00;83.68;102942.06;7397551;19;19923;-69
2023/09/04 06:43:32;;;;;;;6.88;5.30;;;;;;;15.07;83.50;102943.13;7396946;19;19926;-70
2023/09/04 06:46:01;;;;;;;6.82;5.20;;;;;;;15.15;83.45;102945.06;7396613;19;19973;-69
2023/09/04 06:48:31;;;;;;;7.60;5.13;;;;;;;15.21;83.86;102945.31;7395416;19;19922;-70
2023/09/04 06:50:59;;;;;;;7.85;4.95;;;;;;;15.28;83.03;102937.38;7396412;19;19930;-69
2023/09/04 06:53:28;;;;;;;7.55;5.00;;;;;;;15.33;83.04;102944.03;7396065;19;19928;-69
2023/09/04 06:56:00;;;;;;;7.30;4.88;;;;;;;15.40;83.25;102941.56;7396947;19;19922;-69
2023/09/04 06:58:28;;;;;;;7.57;5.30;;;;;;;15.49;82.97;102950.63;7394382;19;19922;-69
2023/09/04 07:00:58;;;;;;;7.32;5.07;;;;;;;15.56;83.04;102938.13;7394265;19;19922;-69
2023/09/04 07:03:27;;;;;;;7.80;4.85;;;;;;;15.62;82.45;102949.19;7398413;19;20553;-69
2023/09/04 07:05:56;;;;;;;4.88;4.35;;;;;;;15.67;82.83;102954.16;7397047;19;20371;-69
2023/09/04 07:08:30;;;;;;;7.80;5.63;;;;;;;15.74;82.45;102957.97;7396918;19;19929;-70
2023/09/04 07:11:02;;;;;;;7.00;4.97;;;;;;;15.79;82.65;102958.34;7399833;19;19923;-70
2023/09/04 07:13:31;;;;;;;7.88;5.05;;;;;;;15.86;81.98;102953.97;7397800;19;19926;-70
2023/09/04 07:15:59;;;;;;;5.90;4.82;;;;;;;15.92;81.89;102963.34;7397672;19;19942;-70
2023/09/04 07:18:28;;;;;;;6.28;4.93;;;;;;;15.96;81.92;102951.97;7400244;19;19919;-69
2023/09/04 07:20:56;;;;;;;7.50;5.50;;;;;;;16.01;81.77;102955.03;7394180;19;19919;-70
2023/09/04 07:23:26;;;;;;;6.90;4.57;;;;;;;16.07;81.35;102959.84;7398817;19;19938;-70
2023/09/04 07:25:56;;;;;;;7.35;4.80;;;;;;;16.15;81.79;102956.31;7397928;19;19922;-69
2023/09/04 07:28:27;;;;;;;8.05;5.63;;;;;;;16.22;81.95;102960.09;7390763;19;19925;-69
2023/09/04 07:31:11;;;;;;;6.55;5.15;;;;;;;16.23;82.15;102959.91;7398526;19;19922;-69
2023/09/04 07:33:40;;;;;;;7.53;5.20;;;;;;;16.37;82.09;102960.31;7397504;19;19957;-69
2023/09/04 07:36:08;;;;;;;10.77;5.82;;;;;;;16.45;81.64;102963.06;7396616;19;19926;-70
2023/09/04 07:38:37;;;;;;;11.32;5.85;;;;;;;16.53;82.24;102960.38;7399376;19;19934;-70
2023/09/04 07:41:06;;;;;;;8.82;5.80;;;;;;;16.62;82.06;102964.84;7399331;19;19914;-70
2023/09/04 07:43:38;;;;;;;7.72;5.93;;;;;;;16.67;80.98;102957.03;7395911;19;19922;-69
2023/09/04 07:46:06;;;;;;;9.23;5.30;;;;;;;16.74;81.51;102958.91;7397865;19;19946;-70
2023/09/04 07:48:37;;;;;;;6.88;5.32;;;;;;;16.82;81.41;102954.53;7396474;19;19922;-70
2023/09/04 07:51:08;;;;;;;7.30;5.10;;;;;;;16.87;81.06;102958.44;7398956;19;19982;-70
2023/09/04 07:53:37;;;;;;;6.45;5.28;;;;;;;16.95;80.86;102965.78;7389516;19;19930;-70
2023/09/04 07:56:06;;;;;;;8.10;5.88;;;;;;;17.02;80.67;102967.66;7392191;19;19949;-70
2023/09/04 07:58:39;;;;;;;6.35;4.85;;;;;;;17.10;80.38;102964.94;7397150;19;19926;-70
2023/09/04 08:01:13;;;;;;;6.15;4.55;;;;;;;17.15;79.90;102957.13;7398114;19;20568;-69
2023/09/04 08:03:43;;;;;;;7.50;5.10;;;;;;;17.24;79.17;102960.72;7398277;19;19926;-69
2023/09/04 08:06:12;;;;;;;5.40;4.90;;;;;;;17.30;79.25;102957.28;7396130;19;19922;-70
2023/09/04 08:08:41;;;;;;;5.50;4.78;;;;;;;17.38;78.82;102951.00;7394259;19;19922;-69
2023/09/04 08:11:10;;;;;;;5.55;4.40;;;;;;;17.46;78.16;102962.75;7398255;19;19927;-69
2023/09/04 08:13:41;;;;;;;6.55;4.25;;;;;;;17.53;77.69;102957.44;7397452;19;19949;-70
2023/09/04 08:16:11;;;;;;;4.88;4.40;;;;;;;17.61;77.33;102960.19;7389742;19;19918;-69
2023/09/04 08:18:39;;;;;;;6.13;4.43;;;;;;;17.71;76.98;102960.88;7398363;19;19914;-70
2023/09/04 08:21:09;;;;;;;5.80;4.13;;;;;;;17.80;76.07;102961.69;7396979;19;19950;-69
2023/09/04 08:23:58;;;;;;;4.40;3.35;;;;;;;17.88;75.28;102959.81;7396151;19;19914;-69
2023/09/04 08:26:26;;;;;;;5.13;3.60;;;;;;;17.96;75.55;102957.06;7399412;19;20328;-70
2023/09/04 08:28:58;;;;;;;3.92;3.53;;;;;;;18.06;75.28;102949.53;7396563;19;20316;-70
2023/09/04 08:31:27;;;;;;;6.07;3.97;;;;;;;18.14;74.58;102949.50;7394580;19;20370;-70
2023/09/04 08:34:16;;;;;;;3.80;3.08;;;;;;;18.25;74.60;102945.53;7392498;19;19930;-70
2023/09/04 08:36:46;;;;;;;3.80;3.40;;;;;;;18.36;74.89;102949.75;7397562;19;20395;-70
2023/09/04 08:39:15;;;;;;;4.95;3.28;;;;;;;18.44;74.55;102947.81;7397175;19;20343;-70
2023/09/04 08:41:44;;;;;;;4.15;2.95;;;;;;;18.53;73.31;102948.66;7395235;19;19946;-71
2023/09/04 08:44:17;;;;;;;3.78;3.30;;;;;;;18.58;73.94;102943.53;7397755;19;19946;-70
2023/09/04 08:46:48;;;;;;;4.88;3.50;;;;;;;18.67;73.32;102947.91;7395780;19;19918;-70
2023/09/04 08:49:19;;;;;;;5.78;3.20;;;;;;;18.72;72.98;102950.97;7392520;19;19921;-70
2023/09/04 08:51:48;;;;;;;3.60;3.10;;;;;;;18.80;72.91;102950.06;7396755;19;19935;-70
2023/09/04 08:54:17;;;;;;;4.05;3.65;;;;;;;18.85;72.23;102934.84;7391590;19;19919;-69
2023/09/04 08:56:45;;;;;;;3.78;3.42;;;;;;;18.92;71.41;102941.25;7388483;19;20359;-70
2023/09/04 08:59:17;;;;;;;3.70;3.40;;;;;;;19.01;71.36;102940.16;7397043;19;19979;-70
2023/09/04 09:01:46;;;;;;;;;;;;;;;18.96;69.15;102928.94;7393338;19;19952;-70
2023/09/04 09:04:15;;;;;;;6.75;2.97;;;;;;;19.17;70.26;102927.41;7393709;19;19949;-70
2023/09/04 09:06:44;;;;;;;5.03;3.35;;;;;;;19.28;69.32;102921.50;7395006;19;19918;-70
2023/09/04 09:09:13;;;;;;;3.03;2.72;;;;;;;19.40;69.00;102920.03;7393751;19;19927;-70
2023/09/04 09:11:43;;;;;;;3.85;3.10;;;;;;;19.52;69.81;102924.03;7395000;19;19996;-70
2023/09/04 09:14:11;;;;;;;4.25;2.80;;;;;;;19.64;69.41;102918.94;7395306;19;19945;-70
2023/09/04 09:16:43;;;;;;;3.83;2.85;;;;;;;19.76;68.90;102929.22;7396236;19;20308;-70
2023/09/04 09:19:11;;;;;;;;;;;;;;;19.77;68.13;102927.34;7396747;19;20425;-70
2023/09/04 09:21:40;;;;;;;5.60;2.60;;;;;;;19.91;68.14;102921.91;7392607;19;19926;-70
2023/09/04 09:24:11;;;;;;;4.05;2.40;;;;;;;20.04;67.68;102917.66;7394740;19;19926;-70
2023/09/04 09:26:41;;;;;;;3.08;2.30;;;;;;;20.15;68.32;102912.53;7394937;19;19925;-71
2023/09/04 09:29:12;;;;;;;3.25;2.67;;;;;;;20.29;67.91;102914.44;7389218;19;19951;-70
2023/09/04 09:31:46;;;;;;;4.30;3.40;;;;;;;20.37;65.44;102913.47;7391229;19;19936;-69
2023/09/04 09:34:16;;;;;;;5.20;3.35;;;;;;;20.40;64.56;102912.25;7395297;19;19938;-69
2023/09/04 09:37:05;;;;;;;5.20;2.80;;;;;;;20.44;64.43;102906.19;7391267;19;19922;-70
2023/09/04 09:39:34;;;;;;;3.13;2.78;;;;;;;20.48;64.30;102907.50;7394437;19;19929;-69
2023/09/04 09:42:04;;;;;;;4.20;2.40;;;;;;;20.54;64.56;102903.97;7390530;19;19927;-71
2023/09/04 09:44:33;;;;;;;4.93;2.70;;;;;;;20.61;64.68;102893.97;7398200;19;19929;-70
2023/09/04 09:47:08;;;;;;;5.53;3.10;;;;;;;20.68;63.71;102896.75;7398232;19;19919;-70
2023/09/04 09:49:40;;;;;;;4.85;3.00;;;;;;;20.77;64.17;102895.59;7398778;19;19974;-69
2023/09/04 09:52:28;;;;;;;3.90;2.97;;;;;;;20.88;64.44;102894.25;7392912;19;19928;-70
2023/09/04 09:54:57;;;;;;;4.65;2.65;;;;;;;21.00;64.57;102888.03;7399046;19;19922;-70
2023/09/04 09:57:29;;;;;;;3.13;2.65;;;;;;;21.11;63.21;102884.75;7401092;19;19918;-70
2023/09/04 09:59:58;;;;;;;3.85;2.72;;;;;;;21.19;63.25;102881.03;7401533;19;19918;-69
2023/09/04 10:02:31;;;;;;;2.50;2.20;;;;;;;21.27;62.88;102878.16;7396801;19;20294;-69
2023/09/04 10:05:01;;;;;;;2.22;2.03;;;;;;;21.38;63.37;102880.38;7400857;19;19926;-70
2023/09/04 10:07:57;;;;;;;2.78;2.38;;;;;;;21.50;63.39;102881.50;7399807;19;19955;-70
2023/09/04 10:10:26;;;;;;;9.13;3.08;;;;;;;21.62;62.48;102890.00;7395728;19;20331;-69
2023/09/04 10:13:02;;;;;;;3.95;2.65;;;;;;;21.71;61.25;102875.09;7397922;19;19923;-69
2023/09/04 10:15:34;;;;;;;3.35;2.13;;;;;;;21.80;61.62;102867.53;7401387;19;19919;-70
2023/09/04 10:18:11;;;;;;;4.53;2.00;;;;;;;21.86;61.64;102877.72;7398238;19;19918;-70
2023/09/04 10:20:43;;;;;;;4.00;1.90;;;;;;;21.99;62.24;102881.41;7390388;19;19934;-70
2023/09/04 10:23:14;;;;;;;3.33;2.70;;;;;;;22.11;61.31;102876.19;7392384;19;19926;-68
2023/09/04 10:25:50;;;;;;;5.75;2.45;;;;;;;22.17;60.27;102869.88;7392793;19;19918;-70
2023/09/04 10:28:24;;;;;;;4.03;2.50;;;;;;;22.25;59.73;102866.94;7395083;19;20320;-70
2023/09/04 10:30:55;;;;;;;3.70;2.28;;;;;;;22.34;60.13;102868.47;7402071;19;19922;-70
2023/09/04 10:33:26;;;;;;;5.97;3.17;;;;;;;22.43;57.85;102866.38;7400109;19;20332;-70
2023/09/04 10:35:55;;;;;;;;;;;;;;;22.39;57.90;102865.09;7401785;19;19919;-70
2023/09/04 10:38:25;;;;;;;4.85;2.60;;;;;;;22.56;58.62;102856.25;7395361;19;19926;-70
2023/09/04 10:40:55;;;;;;;4.43;2.47;;;;;;;22.69;58.44;102854.59;7400428;19;19922;-70
2023/09/04 10:43:23;;;;;;;7.15;2.13;;;;;;;22.74;57.36;102855.66;7398004;19;19983;-70
2023/09/04 10:46:07;;;;;;;2.45;2.13;;;;;;;22.77;55.27;102857.19;7397069;19;19946;-70
2023/09/04 10:48:58;;;;;;;2.70;2.00;;;;;;;22.91;57.02;102856.13;7397702;19;19915;-70
2023/09/04 10:51:35;;;;;;;2.33;2.05;;;;;;;23.05;56.45;102852.31;7398323;19;20348;-70
2023/09/04 10:54:05;;;;;;;3.50;1.85;;;;;;;23.21;56.13;102851.06;7398475;19;19926;-70
2023/09/04 10:56:55;;;;;;;2.15;1.73;;;;;;;23.28;54.96;102839.00;7399901;19;19938;-70
2023/09/04 10:59:24;;;;;;;1.90;1.40;;;;;;;23.41;55.71;102847.22;7400986;19;19922;-70
2023/09/04 11:01:52;;;;;;;2.30;1.30;;;;;;;23.54;54.96;102834.53;7395804;19;20571;-70
2023/09/04 11:04:49;;;;;;;2.05;1.50;;;;;;;23.63;53.21;102827.72;7400418;19;19923;-70
2023/09/04 11:07:35;;;;;;;2.00;1.50;;;;;;;23.76;52.50;102833.19;7399786;19;20280;-70
2023/09/04 11:10:06;;;;;;;2.83;1.65;;;;;;;23.87;53.50;102835.25;7394858;19;19922;-70
2023/09/04 11:12:37;;;;;;;2.17;1.40;;;;;;;23.97;53.26;102821.88;7398361;19;19956;-70
2023/09/04 11:15:14;;;;;;;2.30;1.58;;;;;;;24.04;53.05;102811.66;7399581;19;19927;-70
2023/09/04 11:17:46;;;;;;;2.20;1.20;;;;;;;24.16;53.87;102817.38;7398635;19;19918;-70
2023/09/04 11:20:19;;;;;;;2.83;1.83;;;;;;;24.22;51.44;102806.31;7397289;19;19978;-69
2023/09/04 11:22:49;;;;;;;2.55;1.60;;;;;;;24.32;52.39;102809.44;7398141;19;20252;-70
2023/09/04 11:25:18;;;;;;;1.48;1.20;;;;;;;24.45;53.00;102804.91;7398645;19;19990;-69
2023/09/04 11:27:49;;;;;;;2.30;1.42;;;;;;;24.62;53.80;102800.53;7382519;19;19922;-70
2023/09/04 11:30:18;;;;;;;2.42;1.65;;;;;;;24.76;52.68;102785.59;7389823;19;19918;-69
2023/09/04 11:32:47;;;;;;;1.63;1.23;;;;;;;24.89;52.36;102796.56;7397836;19;19922;-69
2023/09/04 11:35:19;;;;;;;2.83;1.50;;;;;;;24.99;51.34;102793.25;7394905;19;20291;-69
2023/09/04 11:37:49;;;;;;;1.88;1.60;;;;;;;25.11;51.76;102795.03;7398100;19;19930;-68
2023/09/04 11:40:18;;;;;;;2.05;1.50;;;;;;;25.23;51.58;102789.66;7391943;19;19922;-70
2023/09/04 11:42:49;;;;;;;2.15;1.20;;;;;;;25.39;50.71;102779.91;7395953;19;20282;-69
2023/09/04 11:45:17;;;;;;;3.45;1.67;;;;;;;25.49;48.94;102775.56;7390025;19;19950;-69
2023/09/04 11:47:47;;;;;;;2.90;1.45;;;;;;;25.60;48.63;102779.47;7393830;19;20710;-69
2023/09/04 11:50:19;;;;;;;2.22;1.30;;;;;;;25.62;48.65;102775.44;7393726;19;19955;-69
2023/09/04 11:52:48;;;;;;;1.70;1.45;;;;;;;25.78;49.19;102779.47;7386667;19;20351;-69